Kibworth Harcourt, United Kingdom
Current Conditions -  °F | °C
As of 12:50 PM on Tuesday 21 Oct 2014 (Local Time) from EGXT Reporting Station
Few Clouds Few Clouds  
Wind Chill: 11°   Ceiling: Unl
Heat Index: 11°   Visibility: 6mi
Dew Point:   Wind: 29mph
Humidity: 71%   Direction: 290°WNW
Pressure: 29.59"   Gusts: 43mph
Location:  52.54°N, 0.99°W
Report Text: EGXT 211150Z AUTO 29025G37KT 9999 // FEW040/// 11/06 Q1002
Loading
Personal Weather Stations






























Interactive Weather Map
Tropical Storm Tracking
New forecast layout! Learn more

10-Day Weather Forecast

Advertisements
Track Severe Weather on mobile